sensor_id;sensor_type;location;lat;lon;timestamp;P1;durP1;ratioP1;P2;durP2;ratioP2
56413;SDS011;42318;48.452;19.526;2024-01-07T00:01:47;4.80;;;2.90;;
56413;SDS011;42318;48.452;19.526;2024-01-07T00:07:49;5.32;;;3.03;;
56413;SDS011;42318;48.452;19.526;2024-01-07T00:10:51;7.00;;;2.83;;
56413;SDS011;42318;48.452;19.526;2024-01-07T00:13:51;4.18;;;2.88;;
56413;SDS011;42318;48.452;19.526;2024-01-07T00:16:52;5.95;;;3.00;;
56413;SDS011;42318;48.452;19.526;2024-01-07T00:19:52;6.35;;;2.83;;
56413;SDS011;42318;48.452;19.526;2024-01-07T00:22:53;4.25;;;2.90;;
56413;SDS011;42318;48.452;19.526;2024-01-07T00:25:54;6.50;;;2.92;;
56413;SDS011;42318;48.452;19.526;2024-01-07T00:28:55;6.50;;;3.30;;
56413;SDS011;42318;48.452;19.526;2024-01-07T00:31:55;4.95;;;3.20;;
56413;SDS011;42318;48.452;19.526;2024-01-07T00:34:56;4.68;;;3.13;;
56413;SDS011;42318;48.452;19.526;2024-01-07T00:37:57;7.97;;;3.38;;
56413;SDS011;42318;48.452;19.526;2024-01-07T00:40:58;5.35;;;3.22;;
56413;SDS011;42318;48.452;19.526;2024-01-07T00:43:58;6.57;;;3.28;;
56413;SDS011;42318;48.452;19.526;2024-01-07T00:46:59;5.80;;;3.13;;
56413;SDS011;42318;48.452;19.526;2024-01-07T00:49:59;5.30;;;3.20;;
56413;SDS011;42318;48.452;19.526;2024-01-07T00:53:00;4.57;;;3.17;;
56413;SDS011;42318;48.452;19.526;2024-01-07T00:56:01;6.00;;;3.42;;
56413;SDS011;42318;48.452;19.526;2024-01-07T00:59:01;7.25;;;3.22;;
56413;SDS011;42318;48.452;19.526;2024-01-07T01:02:03;3.80;;;3.10;;
56413;SDS011;42318;48.452;19.526;2024-01-07T01:05:04;4.90;;;3.03;;
56413;SDS011;42318;48.452;19.526;2024-01-07T01:08:05;4.45;;;3.13;;
56413;SDS011;42318;48.452;19.526;2024-01-07T01:11:08;5.00;;;2.92;;
56413;SDS011;42318;48.452;19.526;2024-01-07T01:14:09;5.30;;;3.33;;
56413;SDS011;42318;48.452;19.526;2024-01-07T01:17:10;5.53;;;3.17;;
56413;SDS011;42318;48.452;19.526;2024-01-07T01:20:10;5.65;;;3.13;;
56413;SDS011;42318;48.452;19.526;2024-01-07T01:23:11;7.25;;;3.30;;
56413;SDS011;42318;48.452;19.526;2024-01-07T01:26:12;4.93;;;3.22;;
56413;SDS011;42318;48.452;19.526;2024-01-07T01:29:13;4.45;;;3.08;;
56413;SDS011;42318;48.452;19.526;2024-01-07T01:32:13;5.30;;;3.25;;
56413;SDS011;42318;48.452;19.526;2024-01-07T01:35:14;6.45;;;2.97;;
56413;SDS011;42318;48.452;19.526;2024-01-07T01:38:14;4.82;;;3.60;;
56413;SDS011;42318;48.452;19.526;2024-01-07T01:41:16;6.63;;;3.17;;
56413;SDS011;42318;48.452;19.526;2024-01-07T01:44:17;4.72;;;3.05;;
56413;SDS011;42318;48.452;19.526;2024-01-07T01:47:17;5.20;;;2.97;;
56413;SDS011;42318;48.452;19.526;2024-01-07T01:50:18;3.88;;;2.78;;
56413;SDS011;42318;48.452;19.526;2024-01-07T01:53:19;4.13;;;3.28;;
56413;SDS011;42318;48.452;19.526;2024-01-07T01:56:20;5.30;;;3.03;;
56413;SDS011;42318;48.452;19.526;2024-01-07T01:59:21;3.88;;;2.75;;
56413;SDS011;42318;48.452;19.526;2024-01-07T02:02:22;3.85;;;3.05;;
56413;SDS011;42318;48.452;19.526;2024-01-07T02:05:23;4.75;;;3.28;;
56413;SDS011;42318;48.452;19.526;2024-01-07T02:08:24;4.10;;;2.83;;
56413;SDS011;42318;48.452;19.526;2024-01-07T02:11:25;4.25;;;3.17;;
56413;SDS011;42318;48.452;19.526;2024-01-07T02:14:26;3.67;;;2.75;;
56413;SDS011;42318;48.452;19.526;2024-01-07T02:17:27;3.83;;;2.90;;
56413;SDS011;42318;48.452;19.526;2024-01-07T02:20:27;3.50;;;3.10;;
56413;SDS011;42318;48.452;19.526;2024-01-07T02:23:28;3.95;;;2.60;;
56413;SDS011;42318;48.452;19.526;2024-01-07T02:26:29;4.85;;;3.08;;
56413;SDS011;42318;48.452;19.526;2024-01-07T02:29:29;8.82;;;2.80;;
56413;SDS011;42318;48.452;19.526;2024-01-07T02:32:30;5.50;;;2.95;;
56413;SDS011;42318;48.452;19.526;2024-01-07T02:35:34;3.85;;;3.15;;
56413;SDS011;42318;48.452;19.526;2024-01-07T02:38:35;4.88;;;2.80;;
56413;SDS011;42318;48.452;19.526;2024-01-07T02:41:36;3.17;;;2.70;;
56413;SDS011;42318;48.452;19.526;2024-01-07T02:44:37;4.28;;;2.85;;
56413;SDS011;42318;48.452;19.526;2024-01-07T02:47:38;4.10;;;3.05;;
56413;SDS011;42318;48.452;19.526;2024-01-07T02:50:38;3.72;;;2.70;;
56413;SDS011;42318;48.452;19.526;2024-01-07T02:53:39;5.53;;;3.08;;
56413;SDS011;42318;48.452;19.526;2024-01-07T02:56:40;3.58;;;2.63;;
56413;SDS011;42318;48.452;19.526;2024-01-07T02:59:40;5.75;;;2.90;;
56413;SDS011;42318;48.452;19.526;2024-01-07T03:02:41;3.00;;;2.47;;
56413;SDS011;42318;48.452;19.526;2024-01-07T03:05:42;3.90;;;2.80;;
56413;SDS011;42318;48.452;19.526;2024-01-07T03:08:42;3.92;;;2.70;;
56413;SDS011;42318;48.452;19.526;2024-01-07T03:11:43;3.70;;;2.60;;
56413;SDS011;42318;48.452;19.526;2024-01-07T03:14:44;3.17;;;2.85;;
56413;SDS011;42318;48.452;19.526;2024-01-07T03:17:44;3.72;;;2.63;;
56413;SDS011;42318;48.452;19.526;2024-01-07T03:20:45;3.70;;;2.78;;
56413;SDS011;42318;48.452;19.526;2024-01-07T03:23:46;4.47;;;2.85;;
56413;SDS011;42318;48.452;19.526;2024-01-07T03:26:47;6.10;;;2.58;;
56413;SDS011;42318;48.452;19.526;2024-01-07T03:29:48;4.93;;;3.30;;
56413;SDS011;42318;48.452;19.526;2024-01-07T03:32:48;3.90;;;2.47;;
56413;SDS011;42318;48.452;19.526;2024-01-07T03:35:49;4.20;;;2.72;;
56413;SDS011;42318;48.452;19.526;2024-01-07T03:38:49;3.25;;;2.38;;
56413;SDS011;42318;48.452;19.526;2024-01-07T03:41:54;5.38;;;2.42;;
56413;SDS011;42318;48.452;19.526;2024-01-07T03:44:55;3.13;;;2.25;;
56413;SDS011;42318;48.452;19.526;2024-01-07T03:47:55;4.28;;;2.63;;
56413;SDS011;42318;48.452;19.526;2024-01-07T03:50:56;4.32;;;2.83;;
56413;SDS011;42318;48.452;19.526;2024-01-07T03:53:57;4.32;;;2.60;;
56413;SDS011;42318;48.452;19.526;2024-01-07T03:56:57;3.33;;;2.55;;
56413;SDS011;42318;48.452;19.526;2024-01-07T03:59:58;3.92;;;2.50;;
56413;SDS011;42318;48.452;19.526;2024-01-07T04:02:58;3.10;;;2.17;;
56413;SDS011;42318;48.452;19.526;2024-01-07T04:05:59;5.05;;;2.53;;
56413;SDS011;42318;48.452;19.526;2024-01-07T04:09:00;4.55;;;2.50;;
56413;SDS011;42318;48.452;19.526;2024-01-07T04:12:00;3.75;;;2.65;;
56413;SDS011;42318;48.452;19.526;2024-01-07T04:15:01;3.22;;;2.65;;
56413;SDS011;42318;48.452;19.526;2024-01-07T04:18:02;3.45;;;2.38;;
56413;SDS011;42318;48.452;19.526;2024-01-07T04:21:04;3.67;;;2.13;;
56413;SDS011;42318;48.452;19.526;2024-01-07T04:24:05;3.13;;;2.40;;
56413;SDS011;42318;48.452;19.526;2024-01-07T04:27:05;4.18;;;2.60;;
56413;SDS011;42318;48.452;19.526;2024-01-07T04:30:06;3.45;;;2.50;;
56413;SDS011;42318;48.452;19.526;2024-01-07T04:33:07;3.88;;;2.50;;
56413;SDS011;42318;48.452;19.526;2024-01-07T04:36:07;3.88;;;2.42;;
56413;SDS011;42318;48.452;19.526;2024-01-07T04:39:08;2.72;;;2.45;;
56413;SDS011;42318;48.452;19.526;2024-01-07T04:42:10;3.63;;;2.47;;
56413;SDS011;42318;48.452;19.526;2024-01-07T04:45:10;3.55;;;2.58;;
56413;SDS011;42318;48.452;19.526;2024-01-07T04:48:11;3.15;;;2.30;;
56413;SDS011;42318;48.452;19.526;2024-01-07T04:51:12;4.07;;;2.67;;
56413;SDS011;42318;48.452;19.526;2024-01-07T04:54:12;4.60;;;2.72;;
56413;SDS011;42318;48.452;19.526;2024-01-07T04:57:13;4.78;;;2.70;;
56413;SDS011;42318;48.452;19.526;2024-01-07T05:00:14;3.42;;;2.47;;
56413;SDS011;42318;48.452;19.526;2024-01-07T05:03:15;3.45;;;2.53;;
56413;SDS011;42318;48.452;19.526;2024-01-07T05:06:16;3.45;;;2.40;;
56413;SDS011;42318;48.452;19.526;2024-01-07T05:09:17;3.97;;;2.53;;
56413;SDS011;42318;48.452;19.526;2024-01-07T05:12:17;3.00;;;2.22;;
56413;SDS011;42318;48.452;19.526;2024-01-07T05:15:18;2.80;;;2.45;;
56413;SDS011;42318;48.452;19.526;2024-01-07T05:18:20;3.47;;;2.42;;
56413;SDS011;42318;48.452;19.526;2024-01-07T05:21:23;3.17;;;2.35;;
56413;SDS011;42318;48.452;19.526;2024-01-07T05:24:27;3.38;;;2.30;;
56413;SDS011;42318;48.452;19.526;2024-01-07T05:27:27;2.90;;;2.40;;
56413;SDS011;42318;48.452;19.526;2024-01-07T05:30:29;3.10;;;2.67;;
56413;SDS011;42318;48.452;19.526;2024-01-07T05:33:29;4.07;;;2.53;;
56413;SDS011;42318;48.452;19.526;2024-01-07T05:36:30;3.63;;;2.00;;
56413;SDS011;42318;48.452;19.526;2024-01-07T05:39:30;2.90;;;2.55;;
56413;SDS011;42318;48.452;19.526;2024-01-07T05:42:31;3.38;;;2.17;;
56413;SDS011;42318;48.452;19.526;2024-01-07T05:45:31;3.72;;;2.30;;
56413;SDS011;42318;48.452;19.526;2024-01-07T05:48:42;2.90;;;2.50;;
56413;SDS011;42318;48.452;19.526;2024-01-07T05:51:46;2.70;;;2.40;;
56413;SDS011;42318;48.452;19.526;2024-01-07T05:54:46;3.03;;;2.30;;
56413;SDS011;42318;48.452;19.526;2024-01-07T05:57:47;3.05;;;2.25;;
56413;SDS011;42318;48.452;19.526;2024-01-07T06:00:48;3.35;;;2.13;;
56413;SDS011;42318;48.452;19.526;2024-01-07T06:03:48;2.80;;;2.15;;
56413;SDS011;42318;48.452;19.526;2024-01-07T06:06:49;3.22;;;2.20;;
56413;SDS011;42318;48.452;19.526;2024-01-07T06:09:50;3.75;;;2.30;;
56413;SDS011;42318;48.452;19.526;2024-01-07T06:12:50;3.10;;;2.30;;
56413;SDS011;42318;48.452;19.526;2024-01-07T06:15:51;3.78;;;2.10;;
56413;SDS011;42318;48.452;19.526;2024-01-07T06:18:53;3.50;;;2.20;;
56413;SDS011;42318;48.452;19.526;2024-01-07T06:21:53;2.92;;;2.17;;
56413;SDS011;42318;48.452;19.526;2024-01-07T06:24:54;2.80;;;2.33;;
56413;SDS011;42318;48.452;19.526;2024-01-07T06:27:54;3.00;;;2.08;;
56413;SDS011;42318;48.452;19.526;2024-01-07T06:30:55;3.97;;;2.10;;
56413;SDS011;42318;48.452;19.526;2024-01-07T06:33:56;2.78;;;2.00;;
56413;SDS011;42318;48.452;19.526;2024-01-07T06:36:56;2.33;;;1.83;;
56413;SDS011;42318;48.452;19.526;2024-01-07T06:39:57;2.50;;;2.05;;
56413;SDS011;42318;48.452;19.526;2024-01-07T06:43:01;2.35;;;1.88;;
56413;SDS011;42318;48.452;19.526;2024-01-07T06:46:01;3.58;;;2.13;;
56413;SDS011;42318;48.452;19.526;2024-01-07T06:49:02;2.90;;;2.20;;
56413;SDS011;42318;48.452;19.526;2024-01-07T06:52:02;3.63;;;2.20;;
56413;SDS011;42318;48.452;19.526;2024-01-07T06:55:03;3.20;;;2.08;;
56413;SDS011;42318;48.452;19.526;2024-01-07T06:58:04;2.92;;;2.15;;
56413;SDS011;42318;48.452;19.526;2024-01-07T07:01:08;2.65;;;2.45;;
56413;SDS011;42318;48.452;19.526;2024-01-07T07:04:09;3.25;;;2.50;;
56413;SDS011;42318;48.452;19.526;2024-01-07T07:07:09;2.55;;;2.20;;
56413;SDS011;42318;48.452;19.526;2024-01-07T07:10:10;4.60;;;2.33;;
56413;SDS011;42318;48.452;19.526;2024-01-07T07:13:11;3.35;;;2.38;;
56413;SDS011;42318;48.452;19.526;2024-01-07T07:16:12;3.08;;;2.50;;
56413;SDS011;42318;48.452;19.526;2024-01-07T07:19:13;2.90;;;2.20;;
56413;SDS011;42318;48.452;19.526;2024-01-07T07:22:15;2.28;;;1.63;;
56413;SDS011;42318;48.452;19.526;2024-01-07T07:25:16;2.55;;;2.25;;
56413;SDS011;42318;48.452;19.526;2024-01-07T07:28:16;3.75;;;2.22;;
56413;SDS011;42318;48.452;19.526;2024-01-07T07:31:18;5.07;;;2.10;;
56413;SDS011;42318;48.452;19.526;2024-01-07T07:34:18;2.30;;;1.92;;
56413;SDS011;42318;48.452;19.526;2024-01-07T07:37:20;3.42;;;2.25;;
56413;SDS011;42318;48.452;19.526;2024-01-07T07:40:20;2.80;;;2.08;;
56413;SDS011;42318;48.452;19.526;2024-01-07T07:43:21;2.88;;;2.22;;
56413;SDS011;42318;48.452;19.526;2024-01-07T07:46:21;2.72;;;2.35;;
56413;SDS011;42318;48.452;19.526;2024-01-07T07:49:22;3.92;;;2.40;;
56413;SDS011;42318;48.452;19.526;2024-01-07T07:52:23;7.93;;;2.30;;
56413;SDS011;42318;48.452;19.526;2024-01-07T07:55:26;4.15;;;2.58;;
56413;SDS011;42318;48.452;19.526;2024-01-07T07:58:27;5.32;;;2.33;;
56413;SDS011;42318;48.452;19.526;2024-01-07T08:01:28;4.15;;;2.22;;
56413;SDS011;42318;48.452;19.526;2024-01-07T08:04:28;3.60;;;2.50;;
56413;SDS011;42318;48.452;19.526;2024-01-07T08:07:29;3.50;;;2.13;;
56413;SDS011;42318;48.452;19.526;2024-01-07T08:10:31;4.22;;;2.50;;
56413;SDS011;42318;48.452;19.526;2024-01-07T08:13:34;8.60;;;2.67;;
56413;SDS011;42318;48.452;19.526;2024-01-07T08:16:35;5.10;;;2.38;;
56413;SDS011;42318;48.452;19.526;2024-01-07T08:19:36;4.93;;;2.50;;
56413;SDS011;42318;48.452;19.526;2024-01-07T08:22:37;7.25;;;2.28;;
56413;SDS011;42318;48.452;19.526;2024-01-07T08:25:38;5.22;;;2.65;;
56413;SDS011;42318;48.452;19.526;2024-01-07T08:28:38;4.90;;;2.33;;
56413;SDS011;42318;48.452;19.526;2024-01-07T08:31:39;9.43;;;2.83;;
56413;SDS011;42318;48.452;19.526;2024-01-07T08:34:40;5.45;;;2.28;;
56413;SDS011;42318;48.452;19.526;2024-01-07T08:37:40;5.22;;;2.67;;
56413;SDS011;42318;48.452;19.526;2024-01-07T08:40:41;8.48;;;2.25;;
56413;SDS011;42318;48.452;19.526;2024-01-07T08:43:42;7.45;;;2.70;;
56413;SDS011;42318;48.452;19.526;2024-01-07T08:46:42;13.95;;;3.15;;
56413;SDS011;42318;48.452;19.526;2024-01-07T08:49:43;8.63;;;2.92;;
56413;SDS011;42318;48.452;19.526;2024-01-07T08:52:43;7.53;;;2.90;;
56413;SDS011;42318;48.452;19.526;2024-01-07T08:55:46;6.20;;;2.83;;
56413;SDS011;42318;48.452;19.526;2024-01-07T08:58:47;6.60;;;2.97;;
56413;SDS011;42318;48.452;19.526;2024-01-07T09:01:48;9.48;;;2.88;;
56413;SDS011;42318;48.452;19.526;2024-01-07T09:04:49;6.68;;;2.90;;
56413;SDS011;42318;48.452;19.526;2024-01-07T09:07:50;7.65;;;2.80;;
56413;SDS011;42318;48.452;19.526;2024-01-07T09:10:52;5.65;;;3.17;;
56413;SDS011;42318;48.452;19.526;2024-01-07T09:13:52;8.70;;;3.42;;
56413;SDS011;42318;48.452;19.526;2024-01-07T09:16:53;8.30;;;3.58;;
56413;SDS011;42318;48.452;19.526;2024-01-07T09:19:54;13.35;;;3.58;;
56413;SDS011;42318;48.452;19.526;2024-01-07T09:22:55;10.32;;;3.50;;
56413;SDS011;42318;48.452;19.526;2024-01-07T09:25:56;8.80;;;4.10;;
56413;SDS011;42318;48.452;19.526;2024-01-07T09:28:56;6.50;;;3.50;;
56413;SDS011;42318;48.452;19.526;2024-01-07T09:31:57;8.23;;;4.03;;
56413;SDS011;42318;48.452;19.526;2024-01-07T09:34:58;9.30;;;4.15;;
56413;SDS011;42318;48.452;19.526;2024-01-07T09:37:58;7.43;;;4.30;;
56413;SDS011;42318;48.452;19.526;2024-01-07T09:40:59;8.32;;;4.78;;
56413;SDS011;42318;48.452;19.526;2024-01-07T09:44:00;11.13;;;4.90;;
56413;SDS011;42318;48.452;19.526;2024-01-07T09:47:00;9.35;;;5.15;;
56413;SDS011;42318;48.452;19.526;2024-01-07T09:50:02;10.98;;;5.60;;
56413;SDS011;42318;48.452;19.526;2024-01-07T09:53:03;17.52;;;5.90;;
56413;SDS011;42318;48.452;19.526;2024-01-07T09:56:11;11.65;;;5.43;;
56413;SDS011;42318;48.452;19.526;2024-01-07T09:59:19;11.80;;;5.00;;
56413;SDS011;42318;48.452;19.526;2024-01-07T10:02:20;7.57;;;6.22;;
56413;SDS011;42318;48.452;19.526;2024-01-07T10:05:23;9.70;;;6.15;;
56413;SDS011;42318;48.452;19.526;2024-01-07T10:08:24;9.73;;;5.72;;
56413;SDS011;42318;48.452;19.526;2024-01-07T10:11:24;16.45;;;6.28;;
56413;SDS011;42318;48.452;19.526;2024-01-07T10:14:25;12.43;;;6.38;;
56413;SDS011;42318;48.452;19.526;2024-01-07T10:17:26;15.10;;;7.03;;
56413;SDS011;42318;48.452;19.526;2024-01-07T10:20:28;11.93;;;6.28;;
56413;SDS011;42318;48.452;19.526;2024-01-07T10:23:29;10.15;;;5.90;;
56413;SDS011;42318;48.452;19.526;2024-01-07T10:26:30;13.63;;;6.47;;
56413;SDS011;42318;48.452;19.526;2024-01-07T10:29:30;12.05;;;7.07;;
56413;SDS011;42318;48.452;19.526;2024-01-07T10:32:31;10.63;;;6.38;;
56413;SDS011;42318;48.452;19.526;2024-01-07T10:35:32;12.63;;;6.88;;
56413;SDS011;42318;48.452;19.526;2024-01-07T10:38:34;14.23;;;6.30;;
56413;SDS011;42318;48.452;19.526;2024-01-07T10:41:35;14.90;;;6.45;;
56413;SDS011;42318;48.452;19.526;2024-01-07T10:44:37;12.98;;;6.32;;
56413;SDS011;42318;48.452;19.526;2024-01-07T10:47:38;14.80;;;6.00;;
56413;SDS011;42318;48.452;19.526;2024-01-07T10:50:41;10.27;;;6.13;;
56413;SDS011;42318;48.452;19.526;2024-01-07T10:53:45;13.60;;;6.10;;
56413;SDS011;42318;48.452;19.526;2024-01-07T10:56:51;16.08;;;5.70;;
56413;SDS011;42318;48.452;19.526;2024-01-07T10:59:58;11.30;;;5.40;;
56413;SDS011;42318;48.452;19.526;2024-01-07T11:03:02;21.00;;;5.88;;
56413;SDS011;42318;48.452;19.526;2024-01-07T11:06:32;13.00;;;5.45;;
56413;SDS011;42318;48.452;19.526;2024-01-07T11:09:41;12.05;;;6.05;;
56413;SDS011;42318;48.452;19.526;2024-01-07T11:12:56;13.63;;;5.35;;
56413;SDS011;42318;48.452;19.526;2024-01-07T11:16:01;16.30;;;5.20;;
56413;SDS011;42318;48.452;19.526;2024-01-07T11:19:02;11.68;;;5.40;;
56413;SDS011;42318;48.452;19.526;2024-01-07T11:25:29;15.85;;;5.00;;
56413;SDS011;42318;48.452;19.526;2024-01-07T11:28:52;16.27;;;5.00;;
56413;SDS011;42318;48.452;19.526;2024-01-07T11:31:53;11.98;;;4.28;;
56413;SDS011;42318;48.452;19.526;2024-01-07T11:34:54;15.52;;;4.75;;
56413;SDS011;42318;48.452;19.526;2024-01-07T11:37:56;13.27;;;4.60;;
56413;SDS011;42318;48.452;19.526;2024-01-07T11:40:58;22.00;;;4.13;;
56413;SDS011;42318;48.452;19.526;2024-01-07T11:44:00;12.68;;;4.70;;
56413;SDS011;42318;48.452;19.526;2024-01-07T11:47:05;12.02;;;4.82;;
56413;SDS011;42318;48.452;19.526;2024-01-07T11:50:06;11.52;;;4.53;;
56413;SDS011;42318;48.452;19.526;2024-01-07T11:53:07;9.07;;;4.38;;
56413;SDS011;42318;48.452;19.526;2024-01-07T11:56:08;11.60;;;4.45;;
56413;SDS011;42318;48.452;19.526;2024-01-07T11:59:09;9.70;;;4.40;;
56413;SDS011;42318;48.452;19.526;2024-01-07T12:02:09;11.55;;;4.88;;
56413;SDS011;42318;48.452;19.526;2024-01-07T12:05:10;12.57;;;4.40;;
56413;SDS011;42318;48.452;19.526;2024-01-07T12:08:11;9.75;;;4.32;;
56413;SDS011;42318;48.452;19.526;2024-01-07T12:11:12;10.98;;;4.22;;
56413;SDS011;42318;48.452;19.526;2024-01-07T12:14:14;9.65;;;4.28;;
56413;SDS011;42318;48.452;19.526;2024-01-07T12:17:16;8.73;;;4.50;;
56413;SDS011;42318;48.452;19.526;2024-01-07T12:20:17;8.80;;;4.38;;
56413;SDS011;42318;48.452;19.526;2024-01-07T12:23:18;11.13;;;4.30;;
56413;SDS011;42318;48.452;19.526;2024-01-07T12:26:18;10.05;;;4.40;;
56413;SDS011;42318;48.452;19.526;2024-01-07T12:29:24;9.25;;;4.20;;
56413;SDS011;42318;48.452;19.526;2024-01-07T12:32:26;12.60;;;4.25;;
56413;SDS011;42318;48.452;19.526;2024-01-07T12:35:27;7.30;;;4.13;;
56413;SDS011;42318;48.452;19.526;2024-01-07T12:38:28;10.30;;;4.40;;
56413;SDS011;42318;48.452;19.526;2024-01-07T12:41:29;7.55;;;4.07;;
56413;SDS011;42318;48.452;19.526;2024-01-07T12:44:29;10.55;;;4.38;;
56413;SDS011;42318;48.452;19.526;2024-01-07T12:47:30;9.15;;;4.15;;
56413;SDS011;42318;48.452;19.526;2024-01-07T12:50:31;8.85;;;3.85;;
56413;SDS011;42318;48.452;19.526;2024-01-07T12:53:32;12.15;;;4.10;;
56413;SDS011;42318;48.452;19.526;2024-01-07T12:56:32;8.95;;;4.30;;
56413;SDS011;42318;48.452;19.526;2024-01-07T12:59:33;10.35;;;4.13;;
56413;SDS011;42318;48.452;19.526;2024-01-07T13:02:34;7.82;;;4.60;;
56413;SDS011;42318;48.452;19.526;2024-01-07T13:05:35;6.13;;;3.58;;
56413;SDS011;42318;48.452;19.526;2024-01-07T13:08:35;9.15;;;4.30;;
56413;SDS011;42318;48.452;19.526;2024-01-07T13:11:36;12.65;;;3.70;;
56413;SDS011;42318;48.452;19.526;2024-01-07T13:14:36;7.35;;;4.55;;
56413;SDS011;42318;48.452;19.526;2024-01-07T13:17:37;10.75;;;4.60;;
56413;SDS011;42318;48.452;19.526;2024-01-07T13:20:40;8.95;;;4.25;;
56413;SDS011;42318;48.452;19.526;2024-01-07T13:23:42;11.88;;;3.83;;
56413;SDS011;42318;48.452;19.526;2024-01-07T13:26:44;10.32;;;4.40;;
56413;SDS011;42318;48.452;19.526;2024-01-07T13:29:44;8.73;;;4.15;;
56413;SDS011;42318;48.452;19.526;2024-01-07T13:32:47;8.30;;;3.80;;
56413;SDS011;42318;48.452;19.526;2024-01-07T13:35:49;11.45;;;4.03;;
56413;SDS011;42318;48.452;19.526;2024-01-07T13:38:51;5.80;;;3.70;;
56413;SDS011;42318;48.452;19.526;2024-01-07T13:41:52;9.48;;;4.43;;
56413;SDS011;42318;48.452;19.526;2024-01-07T13:44:54;8.77;;;4.35;;
56413;SDS011;42318;48.452;19.526;2024-01-07T13:47:54;10.68;;;4.35;;
56413;SDS011;42318;48.452;19.526;2024-01-07T13:50:56;6.78;;;4.03;;
56413;SDS011;42318;48.452;19.526;2024-01-07T13:53:58;8.55;;;4.72;;
56413;SDS011;42318;48.452;19.526;2024-01-07T13:56:59;7.93;;;3.72;;
56413;SDS011;42318;48.452;19.526;2024-01-07T14:00:00;7.63;;;4.22;;
56413;SDS011;42318;48.452;19.526;2024-01-07T14:03:00;7.88;;;3.40;;
56413;SDS011;42318;48.452;19.526;2024-01-07T14:06:02;10.98;;;4.20;;
56413;SDS011;42318;48.452;19.526;2024-01-07T14:09:03;6.72;;;3.40;;
56413;SDS011;42318;48.452;19.526;2024-01-07T14:12:04;6.70;;;3.70;;
56413;SDS011;42318;48.452;19.526;2024-01-07T14:15:05;6.63;;;3.42;;
56413;SDS011;42318;48.452;19.526;2024-01-07T14:18:06;6.05;;;3.80;;
56413;SDS011;42318;48.452;19.526;2024-01-07T14:21:06;5.90;;;3.92;;
56413;SDS011;42318;48.452;19.526;2024-01-07T14:24:07;6.15;;;3.30;;
56413;SDS011;42318;48.452;19.526;2024-01-07T14:27:08;7.47;;;3.20;;
56413;SDS011;42318;48.452;19.526;2024-01-07T14:30:09;6.82;;;3.72;;
56413;SDS011;42318;48.452;19.526;2024-01-07T14:33:09;6.78;;;3.17;;
56413;SDS011;42318;48.452;19.526;2024-01-07T14:36:10;7.47;;;3.45;;
56413;SDS011;42318;48.452;19.526;2024-01-07T14:39:16;7.35;;;3.38;;
56413;SDS011;42318;48.452;19.526;2024-01-07T14:42:18;8.10;;;3.60;;
56413;SDS011;42318;48.452;19.526;2024-01-07T14:45:19;6.13;;;3.20;;
56413;SDS011;42318;48.452;19.526;2024-01-07T14:48:19;6.30;;;3.30;;
56413;SDS011;42318;48.452;19.526;2024-01-07T14:51:20;8.20;;;3.10;;
56413;SDS011;42318;48.452;19.526;2024-01-07T14:54:21;9.00;;;3.20;;
56413;SDS011;42318;48.452;19.526;2024-01-07T14:57:21;6.22;;;3.00;;
56413;SDS011;42318;48.452;19.526;2024-01-07T15:00:22;9.07;;;3.53;;
56413;SDS011;42318;48.452;19.526;2024-01-07T15:03:24;6.30;;;2.88;;
56413;SDS011;42318;48.452;19.526;2024-01-07T15:06:25;4.65;;;3.20;;
56413;SDS011;42318;48.452;19.526;2024-01-07T15:09:26;5.40;;;2.90;;
56413;SDS011;42318;48.452;19.526;2024-01-07T15:12:27;4.63;;;2.80;;
56413;SDS011;42318;48.452;19.526;2024-01-07T15:15:36;9.90;;;3.20;;
56413;SDS011;42318;48.452;19.526;2024-01-07T15:18:37;4.85;;;3.05;;
56413;SDS011;42318;48.452;19.526;2024-01-07T15:21:38;6.40;;;3.30;;
56413;SDS011;42318;48.452;19.526;2024-01-07T15:24:39;5.00;;;2.80;;
56413;SDS011;42318;48.452;19.526;2024-01-07T15:27:39;5.30;;;2.83;;
56413;SDS011;42318;48.452;19.526;2024-01-07T15:30:40;6.85;;;2.97;;
56413;SDS011;42318;48.452;19.526;2024-01-07T15:33:40;8.90;;;3.15;;
56413;SDS011;42318;48.452;19.526;2024-01-07T15:36:41;5.45;;;3.08;;
56413;SDS011;42318;48.452;19.526;2024-01-07T15:39:43;9.02;;;3.30;;
56413;SDS011;42318;48.452;19.526;2024-01-07T15:42:44;4.13;;;2.97;;
56413;SDS011;42318;48.452;19.526;2024-01-07T15:45:44;6.97;;;2.65;;
56413;SDS011;42318;48.452;19.526;2024-01-07T15:48:46;6.28;;;3.13;;
56413;SDS011;42318;48.452;19.526;2024-01-07T15:51:47;8.82;;;3.10;;
56413;SDS011;42318;48.452;19.526;2024-01-07T15:54:47;5.93;;;2.83;;
56413;SDS011;42318;48.452;19.526;2024-01-07T15:57:49;6.43;;;2.70;;
56413;SDS011;42318;48.452;19.526;2024-01-07T16:00:50;6.57;;;2.90;;
56413;SDS011;42318;48.452;19.526;2024-01-07T16:03:52;4.32;;;2.70;;
56413;SDS011;42318;48.452;19.526;2024-01-07T16:06:53;4.75;;;2.70;;
56413;SDS011;42318;48.452;19.526;2024-01-07T16:09:53;4.43;;;2.78;;
56413;SDS011;42318;48.452;19.526;2024-01-07T16:12:54;4.93;;;2.88;;
56413;SDS011;42318;48.452;19.526;2024-01-07T16:15:55;4.03;;;2.53;;
56413;SDS011;42318;48.452;19.526;2024-01-07T16:18:55;4.25;;;2.40;;
56413;SDS011;42318;48.452;19.526;2024-01-07T16:21:56;7.22;;;2.55;;
56413;SDS011;42318;48.452;19.526;2024-01-07T16:24:58;4.80;;;2.95;;
56413;SDS011;42318;48.452;19.526;2024-01-07T16:27:59;3.80;;;2.42;;
56413;SDS011;42318;48.452;19.526;2024-01-07T16:31:00;4.38;;;2.40;;
56413;SDS011;42318;48.452;19.526;2024-01-07T16:34:02;7.32;;;3.05;;
56413;SDS011;42318;48.452;19.526;2024-01-07T16:37:04;4.72;;;2.38;;
56413;SDS011;42318;48.452;19.526;2024-01-07T16:40:04;3.45;;;2.60;;
56413;SDS011;42318;48.452;19.526;2024-01-07T16:43:06;3.53;;;2.22;;
56413;SDS011;42318;48.452;19.526;2024-01-07T16:46:06;4.03;;;2.67;;
56413;SDS011;42318;48.452;19.526;2024-01-07T16:49:07;4.78;;;2.60;;
56413;SDS011;42318;48.452;19.526;2024-01-07T16:52:07;4.07;;;2.10;;
56413;SDS011;42318;48.452;19.526;2024-01-07T16:55:08;5.60;;;2.30;;
56413;SDS011;42318;48.452;19.526;2024-01-07T16:58:08;6.15;;;2.50;;
56413;SDS011;42318;48.452;19.526;2024-01-07T17:01:09;3.38;;;2.17;;
56413;SDS011;42318;48.452;19.526;2024-01-07T17:04:10;3.28;;;2.17;;
56413;SDS011;42318;48.452;19.526;2024-01-07T17:07:10;4.35;;;2.70;;
56413;SDS011;42318;48.452;19.526;2024-01-07T17:10:11;4.30;;;2.40;;
56413;SDS011;42318;48.452;19.526;2024-01-07T17:13:13;4.47;;;2.80;;
56413;SDS011;42318;48.452;19.526;2024-01-07T17:16:14;4.95;;;2.50;;
56413;SDS011;42318;48.452;19.526;2024-01-07T17:19:14;3.47;;;2.80;;
56413;SDS011;42318;48.452;19.526;2024-01-07T17:22:15;3.88;;;2.90;;
56413;SDS011;42318;48.452;19.526;2024-01-07T17:25:16;6.85;;;2.70;;
56413;SDS011;42318;48.452;19.526;2024-01-07T17:28:16;3.80;;;2.53;;
56413;SDS011;42318;48.452;19.526;2024-01-07T17:31:17;3.83;;;2.42;;
56413;SDS011;42318;48.452;19.526;2024-01-07T17:34:18;5.75;;;2.70;;
56413;SDS011;42318;48.452;19.526;2024-01-07T17:37:18;5.25;;;2.83;;
56413;SDS011;42318;48.452;19.526;2024-01-07T17:40:19;4.60;;;2.53;;
56413;SDS011;42318;48.452;19.526;2024-01-07T17:43:20;6.40;;;2.85;;
56413;SDS011;42318;48.452;19.526;2024-01-07T17:46:20;4.00;;;2.28;;
56413;SDS011;42318;48.452;19.526;2024-01-07T17:49:21;4.30;;;2.30;;
56413;SDS011;42318;48.452;19.526;2024-01-07T17:52:22;5.47;;;2.20;;
56413;SDS011;42318;48.452;19.526;2024-01-07T17:55:23;10.02;;;2.90;;
56413;SDS011;42318;48.452;19.526;2024-01-07T17:58:24;5.90;;;2.75;;
56413;SDS011;42318;48.452;19.526;2024-01-07T18:01:25;8.20;;;2.58;;